Time;durP1;ratioP1;P1;durP2;ratioP2;P2;SDS_P1;SDS_P2;PMS_P1;PMS_P2;Temp;Humidity;BMP_temperature;BMP_pressure;BME280_temperature;BME280_humidity;BME280_pressure;Samples;Min_cycle;Max_cycle;Signal;HPM_P1;HPM_P2
2020/11/19 00:05:37;;;;;;;15.6;12.4;;;;;;;2.83;87.15723;99527.51;;;;
2020/11/19 00:15:35;;;;;;;15.9;11.6;;;;;;;2.78;87.25684;99520.22;;;;
2020/11/19 00:25:33;;;;;;;24.9;17.4;;;;;;;2.79;89.51172;99507.72;;;;
2020/11/19 00:35:31;;;;;;;19;13.9;;;;;;;2.76;87.49609;99506.34;;;;
2020/11/19 00:45:28;;;;;;;23.2;16.6;;;;;;;2.73;89.4209;99490.84;;;;
2020/11/19 00:55:26;;;;;;;18.2;14.6;;;;;;;2.73;88.37305;99479.39;;;;
2020/11/19 01:05:24;;;;;;;19.8;16;;;;;;;2.62;87.47852;99464.25;;;;
2020/11/19 01:15:22;;;;;;;25.5;15.8;;;;;;;2.45;87.63379;99462.31;;;;
2020/11/19 01:25:20;;;;;;;19.7;16.8;;;;;;;2.54;88.78809;99447.59;;;;
2020/11/19 01:35:17;;;;;;;17.4;11.2;;;;;;;2.57;88.50684;99430.34;;;;
2020/11/19 01:45:15;;;;;;;11.7;4.8;;;;;;;2.6;88.18164;99424.58;;;;
2020/11/19 01:55:13;;;;;;;5.6;3.8;;;;;;;3.3;88.7793;99406.45;;;;
2020/11/19 02:05:11;;;;;;;6.3;3.2;;;;;;;3.63;87.77246;99397.7;;;;
2020/11/19 02:15:09;;;;;;;8.1;5.2;;;;;;;4.1;87.24707;99375.97;;;;
2020/11/19 02:25:07;;;;;;;7.6;4.9;;;;;;;4.72;85.51074;99355.94;;;;
2020/11/19 02:35:06;;;;;;;7.4;4.1;;;;;;;5.01;84.10059;99338.63;;;;
2020/11/19 02:45:03;;;;;;;8.2;4.4;;;;;;;5.15;83.03613;99332.86;;;;
2020/11/19 02:55:01;;;;;;;6.5;3.7;;;;;;;4.94;83.19531;99329.2;;;;
2020/11/19 03:04:59;;;;;;;4.6;3;;;;;;;4.75;82.87207;99328.77;;;;
2020/11/19 03:14:57;;;;;;;7.1;4.6;;;;;;;4.36;82.30664;99311.23;;;;
2020/11/19 03:24:55;;;;;;;4.5;2.5;;;;;;;4.31;83.98535;99305.82;;;;
2020/11/19 03:34:53;;;;;;;5.5;3.8;;;;;;;4.31;84.05176;99284.47;;;;
2020/11/19 03:44:51;;;;;;;5.7;3;;;;;;;4.09;83.54395;99273.83;;;;
2020/11/19 03:54:49;;;;;;;7.2;3.4;;;;;;;3.74;82.78809;99268.04;;;;
2020/11/19 04:04:46;;;;;;;10.8;6.3;;;;;;;3.31;82.83789;99260.75;;;;
2020/11/19 04:14:44;;;;;;;12.7;8.7;;;;;;;2.99;83.16504;99249.87;;;;
2020/11/19 04:24:42;;;;;;;11.9;8.5;;;;;;;2.7;83.2959;99224.38;;;;
2020/11/19 04:34:40;;;;;;;14.2;8.2;;;;;;;2.42;85.33887;99206.6;;;;
2020/11/19 04:44:38;;;;;;;10;7.1;;;;;;;2.46;88.60645;99197.88;;;;
2020/11/19 04:54:36;;;;;;;9.4;6.3;;;;;;;2.34;87.81738;99199;;;;
2020/11/19 05:04:33;;;;;;;16.4;7;;;;;;;2.39;88.44629;99196.45;;;;
2020/11/19 05:14:31;;;;;;;12.8;9.8;;;;;;;2.18;86.46289;99197.13;;;;
2020/11/19 05:24:29;;;;;;;14.3;11.8;;;;;;;1.83;86.71191;99190.09;;;;
2020/11/19 05:34:26;;;;;;;11.2;6.7;;;;;;;1.91;88.92188;99187.04;;;;
2020/11/19 05:44:24;;;;;;;10.2;6.4;;;;;;;1.84;87.45215;99183.7;;;;
2020/11/19 05:54:22;;;;;;;8.4;6.4;;;;;;;1.88;88.48633;99192.83;;;;
2020/11/19 06:04:19;;;;;;;10.2;8.9;;;;;;;1.74;86.66113;99191.48;;;;
2020/11/19 06:14:17;;;;;;;11.8;8.3;;;;;;;1.74;88.3252;99196.8;;;;
2020/11/19 06:24:15;;;;;;;10.1;7.6;;;;;;;2.2;90.72461;99185.2;;;;
2020/11/19 06:34:12;;;;;;;12;8.1;;;;;;;2.6;90.52051;99182.45;;;;
2020/11/19 06:44:10;;;;;;;10.7;8.8;;;;;;;2.69;88.07617;99161.55;;;;
2020/11/19 06:54:08;;;;;;;11.5;9;;;;;;;3.02;89.17285;99142.88;;;;
2020/11/19 07:04:07;;;;;;;20.7;13.9;;;;;;;3.26;87.19824;99138.17;;;;
2020/11/19 07:14:03;;;;;;;24.8;12.7;;;;;;;3.38;87.69922;99128.19;;;;
2020/11/19 07:24:01;;;;;;;31.8;24.5;;;;;;;3.73;86.13184;99131.28;;;;
2020/11/19 07:33:59;;;;;;;33.5;29.9;;;;;;;3.97;84.94043;99116.61;;;;
2020/11/19 07:43:57;;;;;;;41.8;32.7;;;;;;;4.15;83.67676;99106.64;;;;
2020/11/19 07:53:55;;;;;;;48.6;33.9;;;;;;;4.55;83.93262;99106.97;;;;
2020/11/19 08:03:53;;;;;;;29.8;26;;;;;;;4.95;83.70117;99104.6;;;;
2020/11/19 08:13:51;;;;;;;29;24.2;;;;;;;5.49;83.64844;99078.39;;;;
2020/11/19 08:23:49;;;;;;;24.3;16.4;;;;;;;6.26;83.27344;99085.53;;;;
2020/11/19 08:33:48;;;;;;;20.3;17.3;;;;;;;6.92;81.14258;99072.09;;;;
2020/11/19 08:43:45;;;;;;;20.2;12.1;;;;;;;7.8;78.36035;99069.59;;;;
2020/11/19 08:53:44;;;;;;;13;11.6;;;;;;;8.52;75.77539;99053.52;;;;
2020/11/19 09:03:42;;;;;;;17;11.1;;;;;;;9.37;74.91016;99042.14;;;;
2020/11/19 09:13:41;;;;;;;15;11.7;;;;;;;10.12;73.14258;99040.27;;;;
2020/11/19 09:23:40;;;;;;;15;10.5;;;;;;;10.67;69.78613;99021.59;;;;
2020/11/19 09:33:38;;;;;;;16.2;11.5;;;;;;;11.09;67.92969;99010.55;;;;
2020/11/19 09:43:37;;;;;;;15.8;11.3;;;;;;;11.68;66.01367;98997.96;;;;
2020/11/19 09:53:36;;;;;;;30.4;17.3;;;;;;;12.1;62.73535;98984.03;;;;
2020/11/19 10:03:35;;;;;;;16.5;14.4;;;;;;;12.64;62.32422;98969.39;;;;
2020/11/19 10:13:34;;;;;;;22.4;14;;;;;;;13.06;59.29395;98941.7;;;;
2020/11/19 10:23:33;;;;;;;16.9;13.6;;;;;;;13.48;56.60742;98928.58;;;;
2020/11/19 10:33:32;;;;;;;19.5;12.9;;;;;;;13.94;55.47754;98915.19;;;;
2020/11/19 10:43:31;;;;;;;13.4;8.1;;;;;;;14.49;51.94824;98884.59;;;;
2020/11/19 10:53:31;;;;;;;10.2;5.5;;;;;;;14.86;45.48828;98883.77;;;;
2020/11/19 11:03:30;;;;;;;13;6.8;;;;;;;14.65;46.4082;98884.86;;;;
2020/11/19 11:13:29;;;;;;;14;6.8;;;;;;;14.68;45.00879;98867.92;;;;
2020/11/19 11:23:28;;;;;;;12.2;7.2;;;;;;;14.33;46.54785;98848.28;;;;
2020/11/19 11:33:28;;;;;;;9.8;6.5;;;;;;;14;44.85938;98835.3;;;;
2020/11/19 11:43:34;;;;;;;15.3;7;;;;;;;13.87;46.56738;98841.72;;;;
2020/11/19 11:53:36;;;;;;;12.3;6.3;;;;;;;13.42;46.25488;98843.22;;;;
2020/11/19 12:03:25;;;;;;;7.5;4.1;;;;;;;13.18;47.3418;98835.59;;;;
2020/11/19 12:13:24;;;;;;;6.5;4.1;;;;;;;13.58;46.28418;98834.28;;;;
2020/11/19 12:23:23;;;;;;;8.3;4.2;;;;;;;14.08;45.44141;98820.94;;;;
2020/11/19 12:33:23;;;;;;;6.7;3.4;;;;;;;14.09;44.21387;98819.03;;;;
2020/11/19 12:43:22;;;;;;;5.2;2.5;;;;;;;14.03;43.94434;98837.36;;;;
2020/11/19 12:53:21;;;;;;;5.6;2.9;;;;;;;13.86;43.92676;98831.2;;;;
2020/11/19 13:03:20;;;;;;;4.8;3.2;;;;;;;13.7;45.12793;98801.13;;;;
2020/11/19 13:13:20;;;;;;;6.3;3;;;;;;;13.53;45.28125;98784.92;;;;
2020/11/19 13:23:20;;;;;;;10.9;5.6;;;;;;;13.28;46.07031;98794.66;;;;
2020/11/19 13:33:18;;;;;;;6;3.9;;;;;;;13.12;47.47168;98798.95;;;;
2020/11/19 13:43:17;;;;;;;9.2;4.8;;;;;;;12.85;47.2373;98810.84;;;;
2020/11/19 13:53:16;;;;;;;9.9;5.5;;;;;;;12.51;49.05176;98802.67;;;;
2020/11/19 14:03:15;;;;;;;7.4;5.5;;;;;;;12.16;49.56152;98804.47;;;;
2020/11/19 14:13:15;;;;;;;10.8;4.7;;;;;;;11.75;50.49414;98809.36;;;;
2020/11/19 14:23:14;;;;;;;13.5;5.4;;;;;;;11.38;50.78223;98810.53;;;;
2020/11/19 14:33:12;;;;;;;7.5;5.3;;;;;;;11.21;51.04688;98819.27;;;;
2020/11/19 14:43:11;;;;;;;13.5;8.7;;;;;;;10.89;52.39844;98824.88;;;;
2020/11/19 14:53:10;;;;;;;26.9;23.1;;;;;;;10.19;54.35742;98816.37;;;;
2020/11/19 15:03:09;;;;;;;13.1;10.2;;;;;;;9.92;55.66113;98819.81;;;;
2020/11/19 15:13:08;;;;;;;22.4;14.3;;;;;;;9.63;56.42969;98820.05;;;;
2020/11/19 15:23:08;;;;;;;17.1;11.9;;;;;;;9.29;57.44922;98809.58;;;;
2020/11/19 15:33:08;;;;;;;14.5;11;;;;;;;9.03;58.17188;98821.8;;;;
2020/11/19 15:43:06;;;;;;;16.6;13.9;;;;;;;8.68;59.53613;98835.75;;;;
2020/11/19 15:53:02;;;;;;;26.6;18.3;;;;;;;8.19;61.45313;98833.36;;;;
2020/11/19 16:03:01;;;;;;;19.5;15.5;;;;;;;7.89;63.10059;98853.24;;;;
2020/11/19 16:12:59;;;;;;;20.4;17.2;;;;;;;7.57;64.50684;98859.97;;;;
2020/11/19 16:22:58;;;;;;;33.6;21.9;;;;;;;7.53;65.9834;98858.92;;;;
2020/11/19 16:32:56;;;;;;;29.3;22.1;;;;;;;7.37;66.94824;98865.49;;;;
2020/11/19 16:42:55;;;;;;;28.6;21.8;;;;;;;7.41;67.93066;98889.87;;;;
2020/11/19 16:52:53;;;;;;;25.8;20.4;;;;;;;7.36;68.69727;98905.97;;;;
2020/11/19 17:02:52;;;;;;;35.4;22.6;;;;;;;7.34;69.18848;98910.83;;;;
2020/11/19 17:12:50;;;;;;;28.9;24.3;;;;;;;7.41;69.79395;98909.44;;;;
2020/11/19 17:22:49;;;;;;;26.5;23.7;;;;;;;7.45;69.65527;98915.05;;;;
2020/11/19 17:32:49;;;;;;;35.2;24.8;;;;;;;7.49;69.75098;98929.5;;;;
2020/11/19 17:42:46;;;;;;;37.4;26.4;;;;;;;7.51;70.4502;98943.42;;;;
2020/11/19 17:52:44;;;;;;;54.2;34.4;;;;;;;7.23;74.43945;98957.53;;;;
2020/11/19 18:02:42;;;;;;;42.2;31.8;;;;;;;6.94;78.50977;98968.92;;;;
2020/11/19 18:12:41;;;;;;;56.4;34.8;;;;;;;6.84;79.55371;98976.99;;;;
2020/11/19 18:22:39;;;;;;;43.1;32.1;;;;;;;6.78;80.50293;98980.77;;;;
2020/11/19 18:32:38;;;;;;;42.2;30.9;;;;;;;6.71;81.62695;98998.2;;;;
2020/11/19 18:42:36;;;;;;;50.2;39.2;;;;;;;6.58;82.54297;98992.35;;;;
2020/11/19 18:52:34;;;;;;;48.9;38.3;;;;;;;6.66;83.32813;98999.03;;;;
2020/11/19 19:02:33;;;;;;;44.4;35.3;;;;;;;6.58;83.62402;99007.61;;;;
2020/11/19 19:12:31;;;;;;;43.2;33.9;;;;;;;6.58;84.59375;99012.97;;;;
2020/11/19 19:22:29;;;;;;;43.6;38.2;;;;;;;6.63;84.39063;99030.91;;;;
2020/11/19 19:32:28;;;;;;;39.6;34;;;;;;;6.69;83.83398;99048.57;;;;
2020/11/19 19:42:26;;;;;;;60.2;44.9;;;;;;;6.76;83.77148;99057.94;;;;
2020/11/19 19:52:24;;;;;;;41.1;34.5;;;;;;;6.66;84.06543;99068.67;;;;
2020/11/19 20:02:23;;;;;;;47.3;37.3;;;;;;;6.66;84.23047;99078.58;;;;
2020/11/19 20:12:21;;;;;;;47.6;35.9;;;;;;;6.54;84.73047;99089.55;;;;
2020/11/19 20:22:19;;;;;;;47.9;34.1;;;;;;;6.45;85.67285;99107.23;;;;
2020/11/19 20:32:18;;;;;;;67.1;45.5;;;;;;;6.43;86.14941;99109.36;;;;
2020/11/19 20:42:16;;;;;;;45.9;31.6;;;;;;;6.47;86.02246;99129.18;;;;
2020/11/19 20:52:14;;;;;;;44;36;;;;;;;6.41;86.55566;99139.09;;;;
2020/11/19 21:02:13;;;;;;;32.2;28.7;;;;;;;6.47;86.55762;99155.95;;;;
2020/11/19 21:12:15;;;;;;;41.7;30.4;;;;;;;6.41;86.86816;99183.8;;;;
2020/11/19 21:22:09;;;;;;;33.5;23.6;;;;;;;6.38;86.78418;99193.17;;;;
2020/11/19 21:32:08;;;;;;;29.7;21.8;;;;;;;6.4;86.17578;99182.19;;;;
2020/11/19 21:42:08;;;;;;;33.1;21.7;;;;;;;6.31;86.50293;99189.14;;;;
2020/11/19 21:52:04;;;;;;;31.4;23.6;;;;;;;6.26;86.52539;99183.77;;;;
2020/11/19 22:02:03;;;;;;;33.9;23.5;;;;;;;6.3;86.37891;99187.52;;;;
2020/11/19 22:12:01;;;;;;;31;20.4;;;;;;;6.33;86.23926;99187.8;;;;
2020/11/19 22:21:59;;;;;;;29.8;22.9;;;;;;;6.2;86.79199;99187.5;;;;
2020/11/19 22:31:58;;;;;;;39.9;23;;;;;;;6.15;86.55957;99196.31;;;;
2020/11/19 22:41:56;;;;;;;27.3;19.4;;;;;;;6.14;86.80273;99193.91;;;;
2020/11/19 22:51:55;;;;;;;33.6;26.7;;;;;;;6.24;86.63379;99210;;;;
2020/11/19 23:01:53;;;;;;;35.6;23.9;;;;;;;6.33;86.51758;99214.56;;;;
2020/11/19 23:11:51;;;;;;;34.1;23;;;;;;;6.3;86.26758;99222.31;;;;
2020/11/19 23:21:49;;;;;;;24.4;21.1;;;;;;;6.35;85.87695;99227.7;;;;
2020/11/19 23:31:48;;;;;;;33;23.5;;;;;;;6.47;85.5;99215.67;;;;
2020/11/19 23:41:46;;;;;;;32.3;22.1;;;;;;;6.45;85.44141;99233.89;;;;
2020/11/19 23:51:45;;;;;;;31.1;24.2;;;;;;;6.44;85.61426;99244.84;;;;
